sensor_id;sensor_type;location;lat;lon;timestamp;temperature;humidity
59469;DHT22;45277;52.768;18.262;2023-09-30T00:00:10;17.90;99.90
59469;DHT22;45277;52.768;18.262;2023-09-30T00:02:02;17.90;99.90
59469;DHT22;45277;52.768;18.262;2023-09-30T00:03:34;17.90;99.90
59469;DHT22;45277;52.768;18.262;2023-09-30T00:05:06;17.90;99.90
59469;DHT22;45277;52.768;18.262;2023-09-30T00:06:37;17.90;99.90
59469;DHT22;45277;52.768;18.262;2023-09-30T00:08:09;17.90;99.90
59469;DHT22;45277;52.768;18.262;2023-09-30T00:09:40;17.90;99.90
59469;DHT22;45277;52.768;18.262;2023-09-30T00:11:15;17.90;99.90
59469;DHT22;45277;52.768;18.262;2023-09-30T00:12:48;17.90;99.90
59469;DHT22;45277;52.768;18.262;2023-09-30T00:14:19;17.80;99.90
59469;DHT22;45277;52.768;18.262;2023-09-30T00:15:50;17.80;99.90
59469;DHT22;45277;52.768;18.262;2023-09-30T00:17:22;17.80;99.90
59469;DHT22;45277;52.768;18.262;2023-09-30T00:18:53;17.80;99.90
59469;DHT22;45277;52.768;18.262;2023-09-30T00:20:25;17.80;99.90
59469;DHT22;45277;52.768;18.262;2023-09-30T00:21:57;17.80;99.90
59469;DHT22;45277;52.768;18.262;2023-09-30T00:23:28;17.80;99.90
59469;DHT22;45277;52.768;18.262;2023-09-30T00:24:59;17.90;99.90
59469;DHT22;45277;52.768;18.262;2023-09-30T00:26:32;17.90;99.90
59469;DHT22;45277;52.768;18.262;2023-09-30T00:28:03;17.90;99.90
59469;DHT22;45277;52.768;18.262;2023-09-30T00:29:34;17.90;99.90
59469;DHT22;45277;52.768;18.262;2023-09-30T00:31:07;17.90;99.90
59469;DHT22;45277;52.768;18.262;2023-09-30T00:32:42;17.90;99.90
59469;DHT22;45277;52.768;18.262;2023-09-30T00:34:13;17.90;99.90
59469;DHT22;45277;52.768;18.262;2023-09-30T00:35:45;17.80;99.90
59469;DHT22;45277;52.768;18.262;2023-09-30T00:37:17;17.80;99.90
59469;DHT22;45277;52.768;18.262;2023-09-30T00:38:48;17.80;99.90
59469;DHT22;45277;52.768;18.262;2023-09-30T00:40:20;17.90;99.90
59469;DHT22;45277;52.768;18.262;2023-09-30T00:41:51;17.90;99.90
59469;DHT22;45277;52.768;18.262;2023-09-30T00:43:22;17.90;99.90
59469;DHT22;45277;52.768;18.262;2023-09-30T00:44:54;17.90;99.90
59469;DHT22;45277;52.768;18.262;2023-09-30T00:46:34;17.90;99.90
59469;DHT22;45277;52.768;18.262;2023-09-30T00:48:06;17.90;99.90
59469;DHT22;45277;52.768;18.262;2023-09-30T00:49:38;17.90;99.90
59469;DHT22;45277;52.768;18.262;2023-09-30T00:51:09;18.00;99.90
59469;DHT22;45277;52.768;18.262;2023-09-30T00:52:41;17.90;99.90
59469;DHT22;45277;52.768;18.262;2023-09-30T00:54:13;18.00;99.90
59469;DHT22;45277;52.768;18.262;2023-09-30T00:55:45;18.00;99.90
59469;DHT22;45277;52.768;18.262;2023-09-30T00:57:17;18.10;99.90
59469;DHT22;45277;52.768;18.262;2023-09-30T00:58:51;18.10;99.90
59469;DHT22;45277;52.768;18.262;2023-09-30T01:00:22;18.20;99.90
59469;DHT22;45277;52.768;18.262;2023-09-30T01:01:56;18.20;99.90
59469;DHT22;45277;52.768;18.262;2023-09-30T01:03:30;18.30;99.90
59469;DHT22;45277;52.768;18.262;2023-09-30T01:05:01;18.40;99.90
59469;DHT22;45277;52.768;18.262;2023-09-30T01:06:33;18.50;99.90
59469;DHT22;45277;52.768;18.262;2023-09-30T01:08:05;18.60;99.90
59469;DHT22;45277;52.768;18.262;2023-09-30T01:09:36;18.80;99.90
59469;DHT22;45277;52.768;18.262;2023-09-30T01:11:08;19.00;99.90
59469;DHT22;45277;52.768;18.262;2023-09-30T01:12:40;19.20;99.90
59469;DHT22;45277;52.768;18.262;2023-09-30T01:14:35;19.30;99.90
59469;DHT22;45277;52.768;18.262;2023-09-30T01:16:10;19.50;99.90
59469;DHT22;45277;52.768;18.262;2023-09-30T01:17:41;19.60;99.90
59469;DHT22;45277;52.768;18.262;2023-09-30T01:19:13;19.60;99.90
59469;DHT22;45277;52.768;18.262;2023-09-30T01:20:44;19.70;99.90
59469;DHT22;45277;52.768;18.262;2023-09-30T01:22:15;19.70;99.90
59469;DHT22;45277;52.768;18.262;2023-09-30T01:23:47;19.60;99.90
59469;DHT22;45277;52.768;18.262;2023-09-30T01:25:18;19.40;99.90
59469;DHT22;45277;52.768;18.262;2023-09-30T01:26:50;19.20;99.90
59469;DHT22;45277;52.768;18.262;2023-09-30T01:28:21;19.00;99.90
59469;DHT22;45277;52.768;18.262;2023-09-30T01:29:54;18.80;99.90
59469;DHT22;45277;52.768;18.262;2023-09-30T01:31:25;18.60;99.90
59469;DHT22;45277;52.768;18.262;2023-09-30T01:32:57;18.50;99.90
59469;DHT22;45277;52.768;18.262;2023-09-30T01:34:29;18.40;99.90
59469;DHT22;45277;52.768;18.262;2023-09-30T01:36:00;18.30;99.90
59469;DHT22;45277;52.768;18.262;2023-09-30T01:37:32;18.20;99.90
59469;DHT22;45277;52.768;18.262;2023-09-30T01:39:03;18.10;99.90
59469;DHT22;45277;52.768;18.262;2023-09-30T01:40:35;18.00;99.90
59469;DHT22;45277;52.768;18.262;2023-09-30T01:42:08;18.00;99.90
59469;DHT22;45277;52.768;18.262;2023-09-30T01:43:39;18.00;99.90
59469;DHT22;45277;52.768;18.262;2023-09-30T01:45:11;17.90;99.90
59469;DHT22;45277;52.768;18.262;2023-09-30T01:46:42;17.90;99.90
59469;DHT22;45277;52.768;18.262;2023-09-30T01:48:13;17.80;99.90
59469;DHT22;45277;52.768;18.262;2023-09-30T01:49:45;17.90;99.90
59469;DHT22;45277;52.768;18.262;2023-09-30T01:51:16;17.90;99.90
59469;DHT22;45277;52.768;18.262;2023-09-30T01:52:48;17.80;99.90
59469;DHT22;45277;52.768;18.262;2023-09-30T01:54:20;17.80;99.90
59469;DHT22;45277;52.768;18.262;2023-09-30T01:55:51;17.80;99.90
59469;DHT22;45277;52.768;18.262;2023-09-30T01:57:22;17.70;99.90
59469;DHT22;45277;52.768;18.262;2023-09-30T01:58:54;17.70;99.90
59469;DHT22;45277;52.768;18.262;2023-09-30T02:00:25;17.70;99.90
59469;DHT22;45277;52.768;18.262;2023-09-30T02:01:59;17.60;99.90
59469;DHT22;45277;52.768;18.262;2023-09-30T02:03:30;17.70;99.90
59469;DHT22;45277;52.768;18.262;2023-09-30T02:05:02;17.70;99.90
59469;DHT22;45277;52.768;18.262;2023-09-30T02:06:33;17.70;99.90
59469;DHT22;45277;52.768;18.262;2023-09-30T02:08:05;17.80;99.90
59469;DHT22;45277;52.768;18.262;2023-09-30T02:09:37;17.80;99.90
59469;DHT22;45277;52.768;18.262;2023-09-30T02:11:08;17.80;99.90
59469;DHT22;45277;52.768;18.262;2023-09-30T02:12:40;17.70;99.90
59469;DHT22;45277;52.768;18.262;2023-09-30T02:14:11;17.70;99.90
59469;DHT22;45277;52.768;18.262;2023-09-30T02:15:42;17.80;99.90
59469;DHT22;45277;52.768;18.262;2023-09-30T02:17:14;17.80;99.90
59469;DHT22;45277;52.768;18.262;2023-09-30T02:18:45;17.70;99.90
59469;DHT22;45277;52.768;18.262;2023-09-30T02:20:17;17.70;99.90
59469;DHT22;45277;52.768;18.262;2023-09-30T02:21:51;17.60;99.90
59469;DHT22;45277;52.768;18.262;2023-09-30T02:23:22;17.70;99.90
59469;DHT22;45277;52.768;18.262;2023-09-30T02:24:53;17.70;99.90
59469;DHT22;45277;52.768;18.262;2023-09-30T02:26:25;17.70;99.90
59469;DHT22;45277;52.768;18.262;2023-09-30T02:27:58;17.70;99.90
59469;DHT22;45277;52.768;18.262;2023-09-30T02:29:29;17.80;99.90
59469;DHT22;45277;52.768;18.262;2023-09-30T02:31:02;17.70;99.90
59469;DHT22;45277;52.768;18.262;2023-09-30T02:32:33;17.70;99.90
59469;DHT22;45277;52.768;18.262;2023-09-30T02:34:04;17.60;99.90
59469;DHT22;45277;52.768;18.262;2023-09-30T02:35:36;17.50;99.90
59469;DHT22;45277;52.768;18.262;2023-09-30T02:37:09;17.50;99.90
59469;DHT22;45277;52.768;18.262;2023-09-30T02:38:42;17.50;99.90
59469;DHT22;45277;52.768;18.262;2023-09-30T02:40:14;17.50;99.90
59469;DHT22;45277;52.768;18.262;2023-09-30T02:41:48;17.50;99.90
59469;DHT22;45277;52.768;18.262;2023-09-30T02:43:21;17.50;99.90
59469;DHT22;45277;52.768;18.262;2023-09-30T02:44:53;17.40;99.90
59469;DHT22;45277;52.768;18.262;2023-09-30T02:46:24;17.40;99.90
59469;DHT22;45277;52.768;18.262;2023-09-30T02:47:57;17.40;99.90
59469;DHT22;45277;52.768;18.262;2023-09-30T02:49:32;17.40;99.90
59469;DHT22;45277;52.768;18.262;2023-09-30T02:51:04;17.40;99.90
59469;DHT22;45277;52.768;18.262;2023-09-30T02:52:35;17.30;99.90
59469;DHT22;45277;52.768;18.262;2023-09-30T02:54:07;17.40;99.90
59469;DHT22;45277;52.768;18.262;2023-09-30T02:55:42;17.30;99.90
59469;DHT22;45277;52.768;18.262;2023-09-30T02:57:13;17.40;99.90
59469;DHT22;45277;52.768;18.262;2023-09-30T02:58:45;17.40;99.90
59469;DHT22;45277;52.768;18.262;2023-09-30T03:00:17;17.40;99.90
59469;DHT22;45277;52.768;18.262;2023-09-30T03:01:54;17.30;99.90
59469;DHT22;45277;52.768;18.262;2023-09-30T03:03:27;17.30;99.90
59469;DHT22;45277;52.768;18.262;2023-09-30T03:04:58;17.30;99.90
59469;DHT22;45277;52.768;18.262;2023-09-30T03:06:30;17.20;99.90
59469;DHT22;45277;52.768;18.262;2023-09-30T03:08:01;17.20;99.90
59469;DHT22;45277;52.768;18.262;2023-09-30T03:09:35;17.20;99.90
59469;DHT22;45277;52.768;18.262;2023-09-30T03:11:07;17.20;99.90
59469;DHT22;45277;52.768;18.262;2023-09-30T03:12:38;17.20;99.90
59469;DHT22;45277;52.768;18.262;2023-09-30T03:14:10;17.20;99.90
59469;DHT22;45277;52.768;18.262;2023-09-30T03:15:42;17.10;99.90
59469;DHT22;45277;52.768;18.262;2023-09-30T03:17:13;17.10;99.90
59469;DHT22;45277;52.768;18.262;2023-09-30T03:18:45;17.10;99.90
59469;DHT22;45277;52.768;18.262;2023-09-30T03:20:16;17.00;99.90
59469;DHT22;45277;52.768;18.262;2023-09-30T03:21:50;17.10;99.90
59469;DHT22;45277;52.768;18.262;2023-09-30T03:23:22;17.10;99.90
59469;DHT22;45277;52.768;18.262;2023-09-30T03:25:00;17.20;99.90
59469;DHT22;45277;52.768;18.262;2023-09-30T03:26:31;17.10;99.90
59469;DHT22;45277;52.768;18.262;2023-09-30T03:28:03;17.10;99.90
59469;DHT22;45277;52.768;18.262;2023-09-30T03:29:37;17.20;99.90
59469;DHT22;45277;52.768;18.262;2023-09-30T03:31:09;17.20;99.90
59469;DHT22;45277;52.768;18.262;2023-09-30T03:32:42;17.20;99.90
59469;DHT22;45277;52.768;18.262;2023-09-30T03:34:14;17.20;99.90
59469;DHT22;45277;52.768;18.262;2023-09-30T03:35:47;17.20;99.90
59469;DHT22;45277;52.768;18.262;2023-09-30T03:37:18;17.30;99.90
59469;DHT22;45277;52.768;18.262;2023-09-30T03:38:53;17.40;99.90
59469;DHT22;45277;52.768;18.262;2023-09-30T03:40:30;17.40;99.90
59469;DHT22;45277;52.768;18.262;2023-09-30T03:42:04;17.40;99.90
59469;DHT22;45277;52.768;18.262;2023-09-30T03:43:35;17.40;99.90
59469;DHT22;45277;52.768;18.262;2023-09-30T03:45:12;17.40;99.90
59469;DHT22;45277;52.768;18.262;2023-09-30T03:46:44;17.40;99.90
59469;DHT22;45277;52.768;18.262;2023-09-30T03:48:16;17.40;99.90
59469;DHT22;45277;52.768;18.262;2023-09-30T03:49:49;17.50;99.90
59469;DHT22;45277;52.768;18.262;2023-09-30T03:51:21;17.50;99.90
59469;DHT22;45277;52.768;18.262;2023-09-30T03:53:05;17.50;99.90
59469;DHT22;45277;52.768;18.262;2023-09-30T03:54:38;17.60;99.90
59469;DHT22;45277;52.768;18.262;2023-09-30T03:56:12;17.70;99.90
59469;DHT22;45277;52.768;18.262;2023-09-30T03:57:44;17.70;99.90
59469;DHT22;45277;52.768;18.262;2023-09-30T03:59:19;17.70;99.90
59469;DHT22;45277;52.768;18.262;2023-09-30T04:00:50;17.70;99.90
59469;DHT22;45277;52.768;18.262;2023-09-30T04:02:22;17.80;99.90
59469;DHT22;45277;52.768;18.262;2023-09-30T04:03:54;17.80;99.90
59469;DHT22;45277;52.768;18.262;2023-09-30T04:05:26;17.80;99.90
59469;DHT22;45277;52.768;18.262;2023-09-30T04:07:00;17.80;99.90
59469;DHT22;45277;52.768;18.262;2023-09-30T04:08:33;17.80;99.90
59469;DHT22;45277;52.768;18.262;2023-09-30T04:10:05;17.80;99.90
59469;DHT22;45277;52.768;18.262;2023-09-30T04:11:37;17.80;99.90
59469;DHT22;45277;52.768;18.262;2023-09-30T04:13:08;17.90;99.90
59469;DHT22;45277;52.768;18.262;2023-09-30T04:14:40;17.90;99.90
59469;DHT22;45277;52.768;18.262;2023-09-30T04:16:11;17.90;99.90
59469;DHT22;45277;52.768;18.262;2023-09-30T04:17:43;17.90;99.90
59469;DHT22;45277;52.768;18.262;2023-09-30T04:19:14;18.00;99.90
59469;DHT22;45277;52.768;18.262;2023-09-30T04:20:45;18.00;99.90
59469;DHT22;45277;52.768;18.262;2023-09-30T04:22:18;18.00;99.90
59469;DHT22;45277;52.768;18.262;2023-09-30T04:23:50;18.00;99.90
59469;DHT22;45277;52.768;18.262;2023-09-30T04:25:21;18.00;99.90
59469;DHT22;45277;52.768;18.262;2023-09-30T04:26:53;18.00;99.90
59469;DHT22;45277;52.768;18.262;2023-09-30T04:28:28;18.00;99.90
59469;DHT22;45277;52.768;18.262;2023-09-30T04:30:00;18.00;99.90
59469;DHT22;45277;52.768;18.262;2023-09-30T04:31:31;18.10;99.90
59469;DHT22;45277;52.768;18.262;2023-09-30T04:33:03;18.00;99.90
59469;DHT22;45277;52.768;18.262;2023-09-30T04:34:38;18.00;99.90
59469;DHT22;45277;52.768;18.262;2023-09-30T04:36:10;18.00;99.90
59469;DHT22;45277;52.768;18.262;2023-09-30T04:37:42;18.00;99.90
59469;DHT22;45277;52.768;18.262;2023-09-30T04:39:14;18.00;99.90
59469;DHT22;45277;52.768;18.262;2023-09-30T04:40:47;18.00;99.90
59469;DHT22;45277;52.768;18.262;2023-09-30T04:42:22;18.10;99.90
59469;DHT22;45277;52.768;18.262;2023-09-30T04:43:56;18.10;99.90
59469;DHT22;45277;52.768;18.262;2023-09-30T04:45:28;18.00;99.90
59469;DHT22;45277;52.768;18.262;2023-09-30T04:46:59;18.10;99.90
59469;DHT22;45277;52.768;18.262;2023-09-30T04:48:31;18.10;99.90
59469;DHT22;45277;52.768;18.262;2023-09-30T04:50:06;18.10;99.90
59469;DHT22;45277;52.768;18.262;2023-09-30T04:51:39;18.10;99.90
59469;DHT22;45277;52.768;18.262;2023-09-30T04:53:10;18.10;99.90
59469;DHT22;45277;52.768;18.262;2023-09-30T04:54:44;18.10;99.90
59469;DHT22;45277;52.768;18.262;2023-09-30T04:56:16;18.10;99.90
59469;DHT22;45277;52.768;18.262;2023-09-30T04:57:48;18.10;99.90
59469;DHT22;45277;52.768;18.262;2023-09-30T04:59:20;18.10;99.90
59469;DHT22;45277;52.768;18.262;2023-09-30T05:00:51;18.10;99.90
59469;DHT22;45277;52.768;18.262;2023-09-30T05:02:23;18.10;99.90
59469;DHT22;45277;52.768;18.262;2023-09-30T05:03:55;18.10;99.90
59469;DHT22;45277;52.768;18.262;2023-09-30T05:05:27;18.10;99.90
59469;DHT22;45277;52.768;18.262;2023-09-30T05:06:59;18.00;99.90
59469;DHT22;45277;52.768;18.262;2023-09-30T05:08:31;18.00;99.90
59469;DHT22;45277;52.768;18.262;2023-09-30T05:10:03;17.90;99.90
59469;DHT22;45277;52.768;18.262;2023-09-30T05:11:41;17.90;99.90
59469;DHT22;45277;52.768;18.262;2023-09-30T05:13:13;17.90;99.90
59469;DHT22;45277;52.768;18.262;2023-09-30T05:14:44;17.80;99.90
59469;DHT22;45277;52.768;18.262;2023-09-30T05:16:15;17.80;99.90
59469;DHT22;45277;52.768;18.262;2023-09-30T05:17:48;17.80;99.90
59469;DHT22;45277;52.768;18.262;2023-09-30T05:19:19;17.80;99.90
59469;DHT22;45277;52.768;18.262;2023-09-30T05:20:51;17.80;99.90
59469;DHT22;45277;52.768;18.262;2023-09-30T05:22:23;17.70;99.90
59469;DHT22;45277;52.768;18.262;2023-09-30T05:23:55;17.70;99.90
59469;DHT22;45277;52.768;18.262;2023-09-30T05:25:27;17.70;99.90
59469;DHT22;45277;52.768;18.262;2023-09-30T05:26:59;17.70;99.90
59469;DHT22;45277;52.768;18.262;2023-09-30T05:28:30;17.60;99.90
59469;DHT22;45277;52.768;18.262;2023-09-30T05:30:03;17.50;99.90
59469;DHT22;45277;52.768;18.262;2023-09-30T05:31:34;17.50;99.90
59469;DHT22;45277;52.768;18.262;2023-09-30T05:33:06;17.40;99.90
59469;DHT22;45277;52.768;18.262;2023-09-30T05:34:38;17.30;99.90
59469;DHT22;45277;52.768;18.262;2023-09-30T05:36:10;17.30;99.90
59469;DHT22;45277;52.768;18.262;2023-09-30T05:37:44;17.30;99.90
59469;DHT22;45277;52.768;18.262;2023-09-30T05:39:18;17.30;99.90
59469;DHT22;45277;52.768;18.262;2023-09-30T05:40:51;17.30;99.90
59469;DHT22;45277;52.768;18.262;2023-09-30T05:42:22;17.30;99.90
59469;DHT22;45277;52.768;18.262;2023-09-30T05:43:53;17.30;99.90
59469;DHT22;45277;52.768;18.262;2023-09-30T05:45:27;17.30;99.90
59469;DHT22;45277;52.768;18.262;2023-09-30T05:46:59;17.20;99.90
59469;DHT22;45277;52.768;18.262;2023-09-30T05:48:30;17.20;99.90
59469;DHT22;45277;52.768;18.262;2023-09-30T05:50:03;17.20;99.90
59469;DHT22;45277;52.768;18.262;2023-09-30T05:51:37;17.20;99.90
59469;DHT22;45277;52.768;18.262;2023-09-30T05:53:09;17.20;99.90
59469;DHT22;45277;52.768;18.262;2023-09-30T05:54:42;17.10;99.90
59469;DHT22;45277;52.768;18.262;2023-09-30T05:56:13;17.10;99.90
59469;DHT22;45277;52.768;18.262;2023-09-30T05:57:47;17.10;99.90
59469;DHT22;45277;52.768;18.262;2023-09-30T05:59:19;17.10;99.90
59469;DHT22;45277;52.768;18.262;2023-09-30T06:00:52;17.10;99.90
59469;DHT22;45277;52.768;18.262;2023-09-30T06:02:24;17.10;99.90
59469;DHT22;45277;52.768;18.262;2023-09-30T06:03:56;17.10;99.90
59469;DHT22;45277;52.768;18.262;2023-09-30T06:05:28;17.10;99.90
59469;DHT22;45277;52.768;18.262;2023-09-30T06:07:01;17.10;99.90
59469;DHT22;45277;52.768;18.262;2023-09-30T06:08:33;17.10;99.90
59469;DHT22;45277;52.768;18.262;2023-09-30T06:10:05;17.20;99.90
59469;DHT22;45277;52.768;18.262;2023-09-30T06:11:36;17.10;99.90
59469;DHT22;45277;52.768;18.262;2023-09-30T06:13:09;17.20;99.90
59469;DHT22;45277;52.768;18.262;2023-09-30T06:14:41;17.20;99.90
59469;DHT22;45277;52.768;18.262;2023-09-30T06:16:13;17.20;99.90
59469;DHT22;45277;52.768;18.262;2023-09-30T06:17:44;17.10;99.90
59469;DHT22;45277;52.768;18.262;2023-09-30T06:19:16;17.10;99.90
59469;DHT22;45277;52.768;18.262;2023-09-30T06:20:48;17.10;99.90
59469;DHT22;45277;52.768;18.262;2023-09-30T06:22:20;17.10;99.90
59469;DHT22;45277;52.768;18.262;2023-09-30T06:23:52;17.10;99.90
59469;DHT22;45277;52.768;18.262;2023-09-30T06:25:24;17.10;99.90
59469;DHT22;45277;52.768;18.262;2023-09-30T06:26:56;17.10;99.90
59469;DHT22;45277;52.768;18.262;2023-09-30T06:28:28;17.20;99.90
59469;DHT22;45277;52.768;18.262;2023-09-30T06:30:02;17.20;99.90
59469;DHT22;45277;52.768;18.262;2023-09-30T06:31:34;17.10;99.90
59469;DHT22;45277;52.768;18.262;2023-09-30T06:33:05;17.20;99.90
59469;DHT22;45277;52.768;18.262;2023-09-30T06:34:37;17.10;99.90
59469;DHT22;45277;52.768;18.262;2023-09-30T06:36:10;17.10;99.90
59469;DHT22;45277;52.768;18.262;2023-09-30T06:37:42;17.10;99.90
59469;DHT22;45277;52.768;18.262;2023-09-30T06:39:16;17.10;99.90
59469;DHT22;45277;52.768;18.262;2023-09-30T06:40:47;17.00;99.90
59469;DHT22;45277;52.768;18.262;2023-09-30T06:42:19;17.00;99.90
59469;DHT22;45277;52.768;18.262;2023-09-30T06:43:50;17.00;99.90
59469;DHT22;45277;52.768;18.262;2023-09-30T06:45:23;17.00;99.90
59469;DHT22;45277;52.768;18.262;2023-09-30T06:46:54;17.00;99.90
59469;DHT22;45277;52.768;18.262;2023-09-30T06:48:26;17.00;99.90
59469;DHT22;45277;52.768;18.262;2023-09-30T06:49:57;17.00;99.90
59469;DHT22;45277;52.768;18.262;2023-09-30T06:51:29;17.00;99.90
59469;DHT22;45277;52.768;18.262;2023-09-30T06:53:01;17.00;99.90
59469;DHT22;45277;52.768;18.262;2023-09-30T06:54:32;17.00;99.90
59469;DHT22;45277;52.768;18.262;2023-09-30T06:56:07;17.10;99.90
59469;DHT22;45277;52.768;18.262;2023-09-30T06:57:40;17.10;99.90
59469;DHT22;45277;52.768;18.262;2023-09-30T06:59:14;17.20;99.90
59469;DHT22;45277;52.768;18.262;2023-09-30T07:00:45;17.30;99.90
59469;DHT22;45277;52.768;18.262;2023-09-30T07:02:16;17.40;99.90
59469;DHT22;45277;52.768;18.262;2023-09-30T07:03:48;17.50;99.90
59469;DHT22;45277;52.768;18.262;2023-09-30T07:05:20;17.60;99.90
59469;DHT22;45277;52.768;18.262;2023-09-30T07:06:53;17.80;99.90
59469;DHT22;45277;52.768;18.262;2023-09-30T07:08:25;17.90;99.90
59469;DHT22;45277;52.768;18.262;2023-09-30T07:09:57;17.90;99.90
59469;DHT22;45277;52.768;18.262;2023-09-30T07:11:29;17.80;99.90
59469;DHT22;45277;52.768;18.262;2023-09-30T07:13:04;17.70;99.90
59469;DHT22;45277;52.768;18.262;2023-09-30T07:14:37;17.70;99.90
59469;DHT22;45277;52.768;18.262;2023-09-30T07:16:09;17.60;99.90
59469;DHT22;45277;52.768;18.262;2023-09-30T07:17:42;17.50;99.90
59469;DHT22;45277;52.768;18.262;2023-09-30T07:19:14;17.40;99.90
59469;DHT22;45277;52.768;18.262;2023-09-30T07:20:46;17.40;99.90
59469;DHT22;45277;52.768;18.262;2023-09-30T07:22:18;17.30;99.90
59469;DHT22;45277;52.768;18.262;2023-09-30T07:23:50;17.30;99.90
59469;DHT22;45277;52.768;18.262;2023-09-30T07:25:21;17.30;99.90
59469;DHT22;45277;52.768;18.262;2023-09-30T07:26:54;17.30;99.90
59469;DHT22;45277;52.768;18.262;2023-09-30T07:28:26;17.20;99.90
59469;DHT22;45277;52.768;18.262;2023-09-30T07:29:58;17.20;99.90
59469;DHT22;45277;52.768;18.262;2023-09-30T07:31:34;17.20;99.90
59469;DHT22;45277;52.768;18.262;2023-09-30T07:33:06;17.10;99.90
59469;DHT22;45277;52.768;18.262;2023-09-30T07:34:38;17.10;99.90
59469;DHT22;45277;52.768;18.262;2023-09-30T07:36:10;17.10;99.90
59469;DHT22;45277;52.768;18.262;2023-09-30T07:37:42;17.10;99.90
59469;DHT22;45277;52.768;18.262;2023-09-30T07:39:13;17.00;99.90
59469;DHT22;45277;52.768;18.262;2023-09-30T07:40:45;17.00;99.90
59469;DHT22;45277;52.768;18.262;2023-09-30T07:42:17;16.90;99.90
59469;DHT22;45277;52.768;18.262;2023-09-30T07:43:49;16.90;99.90
59469;DHT22;45277;52.768;18.262;2023-09-30T07:45:20;16.90;99.90
59469;DHT22;45277;52.768;18.262;2023-09-30T07:46:53;16.80;99.90
59469;DHT22;45277;52.768;18.262;2023-09-30T07:48:24;16.80;99.90
59469;DHT22;45277;52.768;18.262;2023-09-30T07:49:57;16.90;99.90
59469;DHT22;45277;52.768;18.262;2023-09-30T07:51:29;16.90;99.90
59469;DHT22;45277;52.768;18.262;2023-09-30T07:53:01;17.00;99.90
59469;DHT22;45277;52.768;18.262;2023-09-30T07:54:33;17.10;99.90
59469;DHT22;45277;52.768;18.262;2023-09-30T07:56:05;17.10;99.90
59469;DHT22;45277;52.768;18.262;2023-09-30T07:57:40;17.20;98.00
59469;DHT22;45277;52.768;18.262;2023-09-30T07:59:13;17.20;93.60
59469;DHT22;45277;52.768;18.262;2023-09-30T08:00:45;17.20;95.60
59469;DHT22;45277;52.768;18.262;2023-09-30T08:02:17;17.20;96.80
59469;DHT22;45277;52.768;18.262;2023-09-30T08:03:49;17.30;95.10
59469;DHT22;45277;52.768;18.262;2023-09-30T08:05:21;17.20;95.10
59469;DHT22;45277;52.768;18.262;2023-09-30T08:06:53;17.20;94.40
59469;DHT22;45277;52.768;18.262;2023-09-30T08:08:25;17.20;94.60
59469;DHT22;45277;52.768;18.262;2023-09-30T08:09:57;17.20;87.60
59469;DHT22;45277;52.768;18.262;2023-09-30T08:11:29;17.30;80.40
59469;DHT22;45277;52.768;18.262;2023-09-30T08:13:04;17.20;81.60
59469;DHT22;45277;52.768;18.262;2023-09-30T08:14:35;17.20;83.50
59469;DHT22;45277;52.768;18.262;2023-09-30T08:16:08;17.20;84.70
59469;DHT22;45277;52.768;18.262;2023-09-30T08:17:41;17.20;90.00
59469;DHT22;45277;52.768;18.262;2023-09-30T08:19:13;17.20;90.90
59469;DHT22;45277;52.768;18.262;2023-09-30T08:20:44;17.30;93.30
59469;DHT22;45277;52.768;18.262;2023-09-30T08:22:17;17.30;84.30
59469;DHT22;45277;52.768;18.262;2023-09-30T08:23:49;17.40;86.30
59469;DHT22;45277;52.768;18.262;2023-09-30T08:25:20;17.40;88.50
59469;DHT22;45277;52.768;18.262;2023-09-30T08:26:52;17.40;82.50
59469;DHT22;45277;52.768;18.262;2023-09-30T08:28:24;17.40;90.10
59469;DHT22;45277;52.768;18.262;2023-09-30T08:29:56;17.40;77.80
59469;DHT22;45277;52.768;18.262;2023-09-30T08:31:28;17.40;83.20
59469;DHT22;45277;52.768;18.262;2023-09-30T08:32:59;17.40;88.70
59469;DHT22;45277;52.768;18.262;2023-09-30T08:34:31;17.50;86.20
59469;DHT22;45277;52.768;18.262;2023-09-30T08:36:06;17.60;92.00
59469;DHT22;45277;52.768;18.262;2023-09-30T08:37:39;17.60;86.10
59469;DHT22;45277;52.768;18.262;2023-09-30T08:39:10;17.70;82.70
59469;DHT22;45277;52.768;18.262;2023-09-30T08:40:44;17.70;87.70
59469;DHT22;45277;52.768;18.262;2023-09-30T08:42:18;17.80;83.50
59469;DHT22;45277;52.768;18.262;2023-09-30T08:43:51;17.90;84.20
59469;DHT22;45277;52.768;18.262;2023-09-30T08:45:28;17.90;81.30
59469;DHT22;45277;52.768;18.262;2023-09-30T08:47:01;17.90;78.40
59469;DHT22;45277;52.768;18.262;2023-09-30T08:48:33;17.90;78.20
59469;DHT22;45277;52.768;18.262;2023-09-30T08:50:07;18.00;67.00
59469;DHT22;45277;52.768;18.262;2023-09-30T08:51:39;17.90;67.10
59469;DHT22;45277;52.768;18.262;2023-09-30T08:53:13;18.00;68.70
59469;DHT22;45277;52.768;18.262;2023-09-30T08:54:46;18.10;74.40
59469;DHT22;45277;52.768;18.262;2023-09-30T08:56:20;18.20;66.40
59469;DHT22;45277;52.768;18.262;2023-09-30T08:57:54;18.30;58.90
59469;DHT22;45277;52.768;18.262;2023-09-30T08:59:27;18.10;57.80
59469;DHT22;45277;52.768;18.262;2023-09-30T09:01:00;18.00;52.30
59469;DHT22;45277;52.768;18.262;2023-09-30T09:02:35;17.90;58.10
59469;DHT22;45277;52.768;18.262;2023-09-30T09:04:07;17.90;67.60
59469;DHT22;45277;52.768;18.262;2023-09-30T09:05:38;17.90;58.70
59469;DHT22;45277;52.768;18.262;2023-09-30T09:07:10;18.00;63.20
59469;DHT22;45277;52.768;18.262;2023-09-30T09:08:42;18.20;60.00
59469;DHT22;45277;52.768;18.262;2023-09-30T09:10:14;18.50;50.90
59469;DHT22;45277;52.768;18.262;2023-09-30T09:11:46;18.80;51.10
59469;DHT22;45277;52.768;18.262;2023-09-30T09:13:18;19.00;52.40
59469;DHT22;45277;52.768;18.262;2023-09-30T09:14:50;18.90;46.30
59469;DHT22;45277;52.768;18.262;2023-09-30T09:16:23;18.70;46.20
59469;DHT22;45277;52.768;18.262;2023-09-30T09:17:55;18.60;48.40
59469;DHT22;45277;52.768;18.262;2023-09-30T09:19:27;18.60;49.50
59469;DHT22;45277;52.768;18.262;2023-09-30T09:22:43;18.70;47.50
59469;DHT22;45277;52.768;18.262;2023-09-30T09:24:36;18.80;44.40
59469;DHT22;45277;52.768;18.262;2023-09-30T09:26:08;18.80;45.00
59469;DHT22;45277;52.768;18.262;2023-09-30T09:27:40;18.70;34.30
59469;DHT22;45277;52.768;18.262;2023-09-30T09:29:11;18.50;40.40
59469;DHT22;45277;52.768;18.262;2023-09-30T09:30:43;18.40;34.60
59469;DHT22;45277;52.768;18.262;2023-09-30T09:32:16;18.40;42.90
59469;DHT22;45277;52.768;18.262;2023-09-30T09:33:49;18.30;32.20
59469;DHT22;45277;52.768;18.262;2023-09-30T09:35:22;18.30;40.70